createdAt,value
2023-04-15T00:01:10.034Z,9.13
2023-04-15T00:03:36.973Z,9.13
2023-04-15T00:06:03.921Z,9.13
2023-04-15T00:08:30.975Z,9.00
2023-04-15T00:11:02.616Z,9.06
2023-04-15T00:13:29.544Z,9.13
2023-04-15T00:15:56.296Z,9.06
2023-04-15T00:18:23.312Z,9.13
2023-04-15T00:20:50.128Z,9.13
2023-04-15T00:23:16.822Z,9.06
2023-04-15T00:25:43.409Z,9.00
2023-04-15T00:28:10.170Z,8.88
2023-04-15T00:30:36.752Z,8.75
2023-04-15T00:33:03.845Z,8.75
2023-04-15T00:35:32.720Z,8.75
2023-04-15T00:37:59.850Z,8.75
2023-04-15T00:40:27.793Z,8.88
2023-04-15T00:42:54.523Z,8.94
2023-04-15T00:45:21.330Z,8.75
2023-04-15T00:47:48.189Z,8.75
2023-04-15T00:50:14.849Z,8.69
2023-04-15T00:52:41.781Z,8.75
2023-04-15T00:55:08.871Z,8.56
2023-04-15T00:57:36.558Z,8.56
2023-04-15T01:00:04.704Z,8.69
2023-04-15T01:02:32.678Z,8.75
2023-04-15T01:04:59.643Z,8.75
2023-04-15T01:07:26.285Z,8.75
2023-04-15T01:09:53.463Z,8.88
2023-04-15T01:12:20.740Z,8.75
2023-04-15T01:14:47.564Z,8.56
2023-04-15T01:17:15.417Z,8.50
2023-04-15T01:19:42.347Z,8.44
2023-04-15T01:22:09.221Z,8.69
2023-04-15T01:24:37.616Z,8.44
2023-04-15T01:27:05.329Z,8.38
2023-04-15T01:29:38.289Z,8.44
2023-04-15T01:32:05.741Z,8.25
2023-04-15T01:34:34.331Z,8.25
2023-04-15T01:37:02.325Z,8.06
2023-04-15T01:39:29.062Z,8.19
2023-04-15T01:41:55.679Z,8.13
2023-04-15T01:44:22.673Z,8.06
2023-04-15T01:46:49.414Z,8.00
2023-04-15T01:49:16.067Z,7.94
2023-04-15T01:51:42.693Z,7.94
2023-04-15T01:54:09.248Z,7.81
2023-04-15T01:56:35.897Z,7.88
2023-04-15T01:59:03.800Z,7.88
2023-04-15T02:01:30.639Z,7.81
2023-04-15T02:03:57.909Z,7.88
2023-04-15T02:06:24.545Z,7.94
2023-04-15T02:08:51.199Z,7.69
2023-04-15T02:11:18.357Z,7.69
2023-04-15T02:13:44.948Z,7.56
2023-04-15T02:16:18.841Z,7.63
2023-04-15T02:18:47.039Z,7.56
2023-04-15T02:21:14.198Z,7.56
2023-04-15T02:23:41.089Z,7.63
2023-04-15T02:26:08.157Z,7.63
2023-04-15T02:28:34.894Z,7.63
2023-04-15T02:31:06.384Z,7.50
2023-04-15T02:33:33.223Z,7.63
2023-04-15T02:35:59.825Z,7.50
2023-04-15T02:38:26.426Z,7.50
2023-04-15T02:40:53.344Z,7.56
2023-04-15T02:43:19.991Z,7.50
2023-04-15T02:45:47.337Z,7.63
2023-04-15T02:48:14.048Z,7.44
2023-04-15T02:50:40.995Z,7.50
2023-04-15T02:53:07.775Z,7.38
2023-04-15T02:55:34.586Z,7.25
2023-04-15T02:58:01.460Z,7.25
2023-04-15T03:00:28.307Z,7.25
2023-04-15T03:02:59.404Z,7.19
2023-04-15T03:05:26.430Z,7.31
2023-04-15T03:07:53.836Z,7.19
2023-04-15T03:10:21.521Z,7.13
2023-04-15T03:12:48.770Z,7.13
2023-04-15T03:15:15.615Z,7.06
2023-04-15T03:17:42.207Z,7.13
2023-04-15T03:20:09.569Z,7.06
2023-04-15T03:22:36.275Z,7.06
2023-04-15T03:25:02.883Z,7.13
2023-04-15T03:27:29.446Z,7.06
2023-04-15T03:29:56.823Z,7.13
2023-04-15T03:32:23.565Z,7.00
2023-04-15T03:34:50.272Z,7.13
2023-04-15T03:37:16.904Z,7.06
2023-04-15T03:39:43.561Z,7.13
2023-04-15T03:42:10.145Z,7.13
2023-04-15T03:44:37.157Z,7.19
2023-04-15T03:47:03.802Z,7.19
2023-04-15T03:49:30.415Z,7.31
2023-04-15T03:51:57.384Z,7.25
2023-04-15T03:54:24.036Z,7.19
2023-04-15T03:56:50.734Z,7.06
2023-04-15T03:59:17.329Z,7.00
2023-04-15T04:01:43.998Z,7.00
2023-04-15T04:04:10.979Z,6.94
2023-04-15T04:06:37.755Z,6.94
2023-04-15T04:09:04.380Z,6.75
2023-04-15T04:11:31.684Z,6.75
2023-04-15T04:13:58.507Z,6.69
2023-04-15T04:16:25.177Z,6.75
2023-04-15T04:18:51.879Z,6.88
2023-04-15T04:21:18.645Z,7.00
2023-04-15T04:23:45.412Z,7.06
2023-04-15T04:26:12.031Z,6.94
2023-04-15T04:28:40.551Z,6.88
2023-04-15T04:31:08.459Z,6.94
2023-04-15T04:33:35.329Z,7.00
2023-04-15T04:36:01.925Z,6.81
2023-04-15T04:38:28.533Z,6.75
2023-04-15T04:40:55.373Z,6.81
2023-04-15T04:43:22.000Z,6.81
2023-04-15T04:45:48.619Z,6.69
2023-04-15T04:48:15.240Z,6.69
2023-04-15T04:50:41.965Z,6.69
2023-04-15T04:53:08.931Z,6.75
2023-04-15T04:55:37.059Z,6.63
2023-04-15T04:58:03.696Z,6.50
2023-04-15T05:00:30.377Z,6.44
2023-04-15T05:02:57.280Z,6.44
2023-04-15T05:05:24.004Z,6.50
2023-04-15T05:07:50.887Z,6.50
2023-04-15T05:10:18.197Z,6.50
2023-04-15T05:12:44.945Z,6.50
2023-04-15T05:15:12.106Z,6.44
2023-04-15T05:17:39.003Z,6.50
2023-04-15T05:20:06.254Z,6.50
2023-04-15T05:22:32.875Z,6.31
2023-04-15T05:24:59.577Z,6.25
2023-04-15T05:27:26.165Z,6.31
2023-04-15T05:29:52.736Z,6.38
2023-04-15T05:32:19.448Z,6.44
2023-04-15T05:34:46.328Z,6.50
2023-04-15T05:37:13.069Z,6.56
2023-04-15T05:39:39.745Z,6.69
2023-04-15T05:42:06.833Z,6.69
2023-04-15T05:44:33.517Z,6.75
2023-04-15T05:47:00.162Z,6.75
2023-04-15T05:49:27.465Z,6.81
2023-04-15T05:51:54.091Z,6.75
2023-04-15T05:54:22.553Z,6.75
2023-04-15T05:56:49.413Z,6.75
2023-04-15T05:59:16.086Z,6.81
2023-04-15T06:01:42.921Z,6.75
2023-04-15T06:04:09.859Z,6.88
2023-04-15T06:06:37.255Z,6.81
2023-04-15T06:09:04.770Z,6.88
2023-04-15T06:11:31.508Z,7.00
2023-04-15T06:13:58.092Z,7.06
2023-04-15T06:16:24.815Z,7.00
2023-04-15T06:18:51.409Z,7.06
2023-04-15T06:21:18.065Z,7.25
2023-04-15T06:23:44.844Z,7.38
2023-04-15T06:26:11.546Z,7.50
2023-04-15T06:28:38.174Z,7.69
2023-04-15T06:31:04.934Z,7.75
2023-04-15T06:33:32.076Z,8.06
2023-04-15T06:35:58.908Z,8.31
2023-04-15T06:38:25.857Z,8.44
2023-04-15T06:40:52.581Z,8.56
2023-04-15T06:43:19.758Z,8.81
2023-04-15T06:45:46.482Z,8.94
2023-04-15T06:48:13.162Z,9.19
2023-04-15T06:50:40.286Z,9.44
2023-04-15T06:53:07.303Z,9.63
2023-04-15T06:55:34.365Z,10.19
2023-04-15T06:58:00.999Z,10.38
2023-04-15T07:00:28.632Z,11.00
2023-04-15T07:02:58.875Z,11.31
2023-04-15T07:05:25.455Z,11.75
2023-04-15T07:07:52.955Z,12.19
2023-04-15T07:10:20.364Z,12.06
2023-04-15T07:12:48.693Z,12.19
2023-04-15T07:15:15.313Z,12.38
2023-04-15T07:17:43.367Z,12.38
2023-04-15T07:20:10.517Z,12.19
2023-04-15T07:22:37.153Z,12.00
2023-04-15T07:25:04.120Z,12.25
2023-04-15T07:27:31.093Z,12.13
2023-04-15T07:29:57.676Z,12.31
2023-04-15T07:32:24.313Z,12.56
2023-04-15T07:34:50.884Z,12.56
2023-04-15T07:37:17.570Z,12.94
2023-04-15T07:39:44.133Z,13.44
2023-04-15T07:42:10.869Z,13.75
2023-04-15T07:44:37.508Z,13.94
2023-04-15T07:47:04.419Z,14.63
2023-04-15T07:49:31.428Z,14.63
2023-04-15T07:51:59.981Z,14.88
2023-04-15T07:54:27.359Z,14.88
2023-04-15T07:56:54.253Z,15.06
2023-04-15T07:59:21.534Z,14.94
2023-04-15T08:01:48.462Z,15.06
2023-04-15T08:04:15.794Z,14.94
2023-04-15T08:06:42.516Z,14.94
2023-04-15T08:09:09.098Z,15.00
2023-04-15T08:11:36.581Z,15.13
2023-04-15T08:14:03.214Z,15.63
2023-04-15T08:16:29.901Z,15.75
2023-04-15T08:18:57.859Z,15.94
2023-04-15T08:21:25.004Z,16.06
2023-04-15T08:23:53.397Z,16.19
2023-04-15T08:26:21.591Z,16.13
2023-04-15T08:28:49.182Z,15.81
2023-04-15T08:31:17.188Z,16.06
2023-04-15T08:33:44.287Z,16.13
2023-04-15T08:36:10.952Z,16.25
2023-04-15T08:38:38.055Z,16.44
2023-04-15T08:41:25.644Z,16.31
2023-04-15T08:44:03.610Z,16.38
2023-04-15T08:46:34.860Z,15.81
2023-04-15T08:49:04.775Z,15.88
2023-04-15T08:51:32.660Z,16.00
2023-04-15T08:54:00.124Z,16.06
2023-04-15T08:56:27.803Z,16.00
2023-04-15T08:58:55.343Z,16.00
2023-04-15T09:01:23.021Z,16.25
2023-04-15T09:03:54.463Z,16.25
2023-04-15T09:06:22.363Z,16.75
2023-04-15T09:08:50.497Z,16.75
2023-04-15T09:11:20.466Z,16.94
2023-04-15T09:13:47.144Z,17.00
2023-04-15T09:16:14.321Z,17.31
2023-04-15T09:18:41.207Z,16.88
2023-04-15T09:21:11.212Z,17.56
2023-04-15T09:23:39.809Z,17.44
2023-04-15T09:26:07.694Z,17.75
2023-04-15T09:28:41.825Z,17.63
2023-04-15T09:31:08.557Z,17.69
2023-04-15T09:33:35.232Z,16.19
2023-04-15T09:36:05.064Z,17.19
2023-04-15T09:38:32.825Z,17.25
2023-04-15T09:41:00.119Z,17.19
2023-04-15T09:43:40.786Z,16.63
2023-04-15T09:46:07.477Z,17.44
2023-04-15T09:48:34.084Z,17.31
2023-04-15T09:51:02.129Z,17.25
2023-04-15T09:53:31.706Z,16.81
2023-04-15T09:56:02.336Z,16.88
2023-04-15T09:58:34.951Z,16.69
2023-04-15T10:01:04.841Z,16.50
2023-04-15T10:03:34.341Z,16.56
2023-04-15T10:06:07.904Z,17.13
2023-04-15T10:08:35.001Z,17.13
2023-04-15T10:11:05.647Z,17.69
2023-04-15T10:13:37.215Z,18.19
2023-04-15T10:16:11.232Z,17.88
2023-04-15T10:18:51.363Z,17.75
2023-04-15T10:21:19.393Z,17.75
2023-04-15T10:23:46.968Z,18.25
2023-04-15T10:26:15.477Z,18.25
2023-04-15T10:28:42.127Z,18.44
2023-04-15T10:31:17.121Z,18.75
2023-04-15T10:33:45.830Z,18.81
2023-04-15T10:36:13.182Z,18.75
2023-04-15T10:38:45.611Z,19.38
2023-04-15T10:41:23.754Z,18.69
2023-04-15T10:44:01.658Z,18.88
2023-04-15T10:46:43.075Z,19.44
2023-04-15T10:49:17.951Z,18.19
2023-04-15T10:51:47.641Z,18.19
2023-04-15T10:54:15.782Z,17.63
2023-04-15T10:56:43.940Z,18.19
2023-04-15T10:59:10.838Z,18.06
2023-04-15T11:01:54.273Z,18.50
2023-04-15T11:05:00.095Z,18.69
2023-04-15T11:07:42.006Z,17.56
2023-04-15T11:10:17.416Z,17.63
2023-04-15T11:13:17.592Z,17.38
2023-04-15T11:15:48.821Z,18.06
2023-04-15T11:18:23.893Z,18.38
2023-04-15T11:20:57.931Z,17.56
2023-04-15T11:23:46.815Z,17.13
2023-04-15T11:26:13.610Z,17.50
2023-04-15T11:28:43.257Z,17.19
2023-04-15T11:31:14.818Z,17.56
2023-04-15T11:33:59.190Z,18.13
2023-04-15T11:36:27.914Z,18.31
2023-04-15T11:38:55.098Z,17.56
2023-04-15T11:41:23.206Z,18.00
2023-04-15T11:43:51.482Z,18.19
2023-04-15T11:46:18.344Z,18.13
2023-04-15T11:48:46.991Z,18.13
2023-04-15T11:51:14.524Z,18.75
2023-04-15T11:53:45.866Z,19.06
2023-04-15T11:56:21.939Z,18.94
2023-04-15T11:58:52.750Z,19.75
2023-04-15T12:01:19.653Z,18.94
2023-04-15T12:03:48.007Z,19.13
2023-04-15T12:06:19.924Z,19.31
2023-04-15T12:08:55.763Z,18.81
2023-04-15T12:11:31.478Z,19.38
2023-04-15T12:14:21.261Z,20.13
2023-04-15T12:16:51.988Z,19.31
2023-04-15T12:19:32.471Z,19.88
2023-04-15T12:22:05.273Z,19.44
2023-04-15T12:24:33.224Z,18.44
2023-04-15T12:27:08.265Z,17.88
2023-04-15T12:29:37.116Z,18.06
2023-04-15T12:32:08.963Z,17.69
2023-04-15T12:34:37.532Z,18.38
2023-04-15T12:37:06.178Z,18.31
2023-04-15T12:39:36.575Z,18.56
2023-04-15T12:42:07.054Z,18.25
2023-04-15T12:44:34.051Z,18.50
2023-04-15T12:47:00.762Z,17.69
2023-04-15T12:49:28.061Z,17.44
2023-04-15T12:51:57.491Z,16.38
2023-04-15T12:54:24.078Z,17.69
2023-04-15T12:56:51.462Z,17.44
2023-04-15T12:59:18.780Z,17.63
2023-04-15T13:01:46.636Z,16.88
2023-04-15T13:04:13.748Z,17.69
2023-04-15T13:06:40.462Z,17.38
2023-04-15T13:09:07.311Z,17.38
2023-04-15T13:11:34.761Z,16.56
2023-04-15T13:14:02.318Z,15.75
2023-04-15T13:16:29.176Z,15.31
2023-04-15T13:18:55.930Z,15.75
2023-04-15T13:21:22.588Z,15.88
2023-04-15T13:23:52.548Z,16.13
2023-04-15T13:26:19.330Z,15.50
2023-04-15T13:28:46.308Z,15.50
2023-04-15T13:31:12.960Z,15.38
2023-04-15T13:33:39.622Z,15.56
2023-04-15T13:36:06.850Z,15.88
2023-04-15T13:38:33.453Z,14.50
2023-04-15T13:41:00.122Z,15.25
2023-04-15T13:43:27.007Z,15.19
2023-04-15T13:45:53.701Z,15.19
2023-04-15T13:48:20.376Z,15.25
2023-04-15T13:50:46.992Z,14.56
2023-04-15T13:53:13.670Z,15.06
2023-04-15T13:55:43.368Z,14.56
2023-04-15T13:58:11.088Z,14.63
2023-04-15T14:00:37.730Z,14.13
2023-04-15T14:03:04.967Z,14.88
2023-04-15T14:05:32.416Z,14.75
2023-04-15T14:08:00.405Z,14.50
2023-04-15T14:10:27.112Z,14.25
2023-04-15T14:12:53.818Z,14.56
2023-04-15T14:15:21.439Z,14.50
2023-04-15T14:17:48.147Z,14.00
2023-04-15T14:20:16.377Z,14.19
2023-04-15T14:22:43.853Z,14.00
2023-04-15T14:25:17.298Z,13.88
2023-04-15T14:27:50.044Z,13.13
2023-04-15T14:30:16.646Z,12.69
2023-04-15T14:32:43.278Z,12.69
2023-04-15T14:35:09.909Z,12.94
2023-04-15T14:37:36.496Z,12.63
2023-04-15T14:40:03.403Z,12.75
2023-04-15T14:42:30.197Z,12.69
2023-04-15T14:44:56.740Z,12.69
2023-04-15T14:47:23.484Z,12.88
2023-04-15T14:49:50.757Z,12.88
2023-04-15T14:52:17.446Z,12.88
2023-04-15T14:54:44.060Z,13.00
2023-04-15T14:57:10.718Z,13.19
2023-04-15T14:59:37.264Z,13.31
2023-04-15T15:02:04.120Z,12.63
2023-04-15T15:04:33.264Z,12.31
2023-04-15T15:07:00.263Z,12.13
2023-04-15T15:09:27.081Z,12.38
2023-04-15T15:11:53.811Z,12.38
2023-04-15T15:14:20.407Z,12.63
2023-04-15T15:16:47.067Z,12.13
2023-04-15T15:19:13.939Z,12.19
2023-04-15T15:21:40.731Z,12.06
2023-04-15T15:24:07.322Z,11.94
2023-04-15T15:26:33.926Z,12.06
2023-04-15T15:29:00.754Z,12.00
2023-04-15T15:31:27.405Z,11.75
2023-04-15T15:33:54.039Z,12.00
2023-04-15T15:36:20.655Z,11.88
2023-04-15T15:38:47.263Z,11.94
2023-04-15T15:41:15.540Z,11.63
2023-04-15T15:43:42.130Z,11.69
2023-04-15T15:46:08.925Z,11.38
2023-04-15T15:48:35.958Z,11.56
2023-04-15T15:51:04.208Z,11.56
2023-04-15T15:53:31.071Z,11.38
2023-04-15T15:55:57.669Z,11.38
2023-04-15T15:58:24.268Z,11.44
2023-04-15T16:00:50.897Z,11.56
2023-04-15T16:03:17.755Z,11.44
2023-04-15T16:05:44.495Z,11.25
2023-04-15T16:08:11.122Z,11.13
2023-04-15T16:10:38.249Z,11.31
2023-04-15T16:13:04.962Z,11.44
2023-04-15T16:15:31.579Z,11.44
2023-04-15T16:17:58.266Z,10.69
2023-04-15T16:20:24.955Z,10.75
2023-04-15T16:22:51.605Z,11.19
2023-04-15T16:25:18.491Z,10.88
2023-04-15T16:27:58.715Z,10.75
2023-04-15T16:30:30.435Z,10.75
2023-04-15T16:32:57.856Z,10.69
2023-04-15T16:35:24.513Z,10.44
2023-04-15T16:37:51.156Z,10.44
2023-04-15T16:40:18.105Z,10.69
2023-04-15T16:42:44.849Z,10.31
2023-04-15T16:45:11.620Z,10.38
2023-04-15T16:47:38.228Z,10.44
2023-04-15T16:50:05.593Z,10.38
2023-04-15T16:52:32.815Z,10.00
2023-04-15T16:54:59.524Z,10.50
2023-04-15T16:57:41.931Z,10.50
2023-04-15T17:00:13.396Z,10.25
2023-04-15T17:02:40.068Z,10.44
2023-04-15T17:05:07.484Z,10.19
2023-04-15T17:07:34.042Z,9.75
2023-04-15T17:10:00.597Z,9.94
2023-04-15T17:12:27.239Z,10.06
2023-04-15T17:14:54.052Z,10.38
2023-04-15T17:17:20.972Z,10.19
2023-04-15T17:19:47.700Z,10.06
2023-04-15T17:22:14.322Z,10.00
2023-04-15T17:24:40.891Z,10.06
2023-04-15T17:27:07.496Z,10.00
2023-04-15T17:29:34.094Z,9.88
2023-04-15T17:32:01.041Z,9.81
2023-04-15T17:34:50.642Z,10.00
2023-04-15T17:37:16.945Z,9.75
2023-04-15T17:39:43.782Z,9.94
2023-04-15T17:42:13.605Z,9.69
2023-04-15T17:44:40.764Z,9.69
2023-04-15T17:47:07.578Z,9.75
2023-04-15T17:49:34.367Z,9.94
2023-04-15T17:52:01.104Z,9.88
2023-04-15T17:54:28.169Z,9.63
2023-04-15T17:56:56.580Z,9.81
2023-04-15T17:59:23.531Z,9.63
2023-04-15T18:01:50.537Z,9.88
2023-04-15T18:04:17.369Z,9.69
2023-04-15T18:06:44.281Z,9.75
2023-04-15T18:09:11.448Z,9.69
2023-04-15T18:11:39.999Z,9.75
2023-04-15T18:14:07.233Z,9.63
2023-04-15T18:16:34.345Z,9.75
2023-04-15T18:19:01.204Z,9.63
2023-04-15T18:21:27.976Z,9.69
2023-04-15T18:23:54.566Z,9.81
2023-04-15T18:26:21.949Z,9.63
2023-04-15T18:28:48.560Z,9.56
2023-04-15T18:31:15.617Z,9.63
2023-04-15T18:33:42.351Z,9.56
2023-04-15T18:36:10.073Z,9.63
2023-04-15T18:38:36.737Z,9.63
2023-04-15T18:41:05.349Z,9.63
2023-04-15T18:43:32.403Z,9.44
2023-04-15T18:46:00.070Z,9.63
2023-04-15T18:48:27.231Z,9.50
2023-04-15T18:50:54.164Z,9.44
2023-04-15T18:53:21.449Z,9.25
2023-04-15T18:55:48.143Z,9.56
2023-04-15T18:58:14.788Z,9.38
2023-04-15T19:00:43.634Z,9.13
2023-04-15T19:03:11.343Z,9.25
2023-04-15T19:05:37.999Z,9.13
2023-04-15T19:08:04.788Z,9.25
2023-04-15T19:10:31.423Z,9.00
2023-04-15T19:12:57.997Z,9.13
2023-04-15T19:15:24.575Z,9.25
2023-04-15T19:17:51.247Z,9.19
2023-04-15T19:20:18.002Z,9.13
2023-04-15T19:22:44.816Z,9.06
2023-04-15T19:25:11.654Z,9.06
2023-04-15T19:27:38.423Z,8.94
2023-04-15T19:30:06.545Z,9.00
2023-04-15T19:32:33.981Z,8.94
2023-04-15T19:35:00.723Z,8.81
2023-04-15T19:37:27.371Z,9.00
2023-04-15T19:39:55.703Z,9.06
2023-04-15T19:42:22.370Z,8.94
2023-04-15T19:44:49.002Z,9.00
2023-04-15T19:47:16.659Z,8.88
2023-04-15T19:49:43.571Z,8.94
2023-04-15T19:52:10.156Z,8.94
2023-04-15T19:54:37.051Z,8.94
2023-04-15T19:57:03.773Z,8.81
2023-04-15T19:59:30.365Z,8.88
2023-04-15T20:01:57.253Z,8.94
2023-04-15T20:04:24.024Z,8.81
2023-04-15T20:06:50.698Z,8.94
2023-04-15T20:09:17.353Z,8.88
2023-04-15T20:12:45.580Z,8.81
2023-04-15T20:14:30.947Z,8.94
2023-04-15T20:16:57.598Z,8.88
2023-04-15T20:19:24.291Z,8.81
2023-04-15T20:21:52.542Z,9.06
2023-04-15T20:24:20.221Z,9.00
2023-04-15T20:26:47.315Z,9.06
2023-04-15T20:29:14.100Z,8.88
2023-04-15T20:31:41.048Z,9.00
2023-04-15T20:34:09.958Z,8.88
2023-04-15T20:36:38.009Z,8.94
2023-04-15T20:39:04.823Z,9.00
2023-04-15T20:41:31.646Z,9.00
2023-04-15T20:43:58.207Z,9.00
2023-04-15T20:46:27.343Z,9.00
2023-04-15T20:48:54.634Z,9.06
2023-04-15T20:51:21.247Z,9.00
2023-04-15T20:53:47.840Z,8.75
2023-04-15T20:56:14.413Z,9.00
2023-04-15T20:58:41.255Z,9.00
2023-04-15T21:01:07.991Z,8.94
2023-04-15T21:03:34.998Z,8.94
2023-04-15T21:06:01.722Z,8.94
2023-04-15T21:08:31.530Z,8.94
2023-04-15T21:10:58.177Z,8.81
2023-04-15T21:13:25.032Z,8.81
2023-04-15T21:15:54.002Z,8.81
2023-04-15T21:18:23.788Z,8.75
2023-04-15T21:21:01.473Z,8.81
2023-04-15T21:23:29.839Z,8.75
2023-04-15T21:25:57.295Z,8.69
2023-04-15T21:28:24.006Z,8.69
2023-04-15T21:30:50.819Z,8.88
2023-04-15T21:33:20.234Z,8.75
2023-04-15T21:35:46.802Z,8.75
2023-04-15T21:38:13.879Z,8.75
2023-04-15T21:40:40.816Z,8.75
2023-04-15T21:43:08.025Z,8.75
2023-04-15T21:45:35.095Z,8.88
2023-04-15T21:48:08.109Z,8.69
2023-04-15T21:50:38.109Z,8.75
2023-04-15T21:53:06.872Z,8.81
2023-04-15T21:55:33.536Z,8.88
2023-04-15T21:58:00.316Z,8.81
2023-04-15T22:00:27.167Z,8.81
2023-04-15T22:02:53.955Z,8.75
2023-04-15T22:05:20.639Z,8.75
2023-04-15T22:07:47.251Z,8.69
2023-04-15T22:10:13.798Z,8.81
2023-04-15T22:12:44.264Z,8.75
2023-04-15T22:15:10.980Z,8.63
2023-04-15T22:17:37.916Z,8.75
2023-04-15T22:20:04.838Z,8.75
2023-04-15T22:22:43.533Z,8.81
2023-04-15T22:25:11.367Z,8.81
2023-04-15T22:27:38.135Z,8.81
2023-04-15T22:30:05.610Z,8.81
2023-04-15T22:32:32.255Z,8.75
2023-04-15T22:34:58.889Z,8.75
2023-04-15T22:37:25.558Z,8.75
2023-04-15T22:39:52.190Z,8.88
2023-04-15T22:42:18.804Z,8.81
2023-04-15T22:44:45.425Z,8.81
2023-04-15T22:47:12.047Z,8.81
2023-04-15T22:49:39.473Z,8.75
2023-04-15T22:52:06.111Z,8.75
2023-04-15T22:54:33.644Z,8.75
2023-04-15T22:57:00.997Z,8.75
2023-04-15T22:59:27.650Z,8.75
2023-04-15T23:01:54.385Z,8.75
2023-04-15T23:04:23.189Z,8.88
2023-04-15T23:06:54.432Z,8.81
2023-04-15T23:09:21.477Z,8.88
2023-04-15T23:11:48.170Z,8.81
2023-04-15T23:14:14.781Z,8.81
2023-04-15T23:16:41.443Z,8.75
2023-04-15T23:19:08.605Z,8.81
2023-04-15T23:21:35.585Z,8.81
2023-04-15T23:24:02.149Z,8.81
2023-04-15T23:26:28.822Z,8.88
2023-04-15T23:28:55.813Z,8.88
2023-04-15T23:31:22.452Z,8.81
2023-04-15T23:33:49.030Z,8.88
2023-04-15T23:36:15.624Z,8.75
2023-04-15T23:38:42.362Z,8.75
2023-04-15T23:41:09.904Z,8.75
2023-04-15T23:43:36.624Z,8.75
2023-04-15T23:46:03.555Z,8.69
2023-04-15T23:48:30.196Z,8.75
2023-04-15T23:50:56.846Z,8.75
2023-04-15T23:53:23.447Z,8.75
2023-04-15T23:55:50.110Z,8.69
2023-04-15T23:58:16.710Z,8.75
